sensor_id;sensor_type;location;lat;lon;timestamp;P1;durP1;ratioP1;P2;durP2;ratioP2
37355;SDS011;48747;50.250;18.848;2023-02-26T01:57:56;15.18;;;7.58;;
37355;SDS011;48747;50.250;18.848;2023-02-26T02:00:04;17.37;;;8.90;;
37355;SDS011;48747;50.250;18.848;2023-02-26T02:04:35;15.90;;;8.30;;
37355;SDS011;48747;50.250;18.848;2023-02-26T02:08:52;19.67;;;11.75;;
37355;SDS011;48747;50.250;18.848;2023-02-26T02:10:58;16.93;;;10.55;;
37355;SDS011;48747;50.250;18.848;2023-02-26T02:26:03;15.50;;;8.45;;
37355;SDS011;48747;50.250;18.848;2023-02-26T02:33:15;12.23;;;6.42;;
37355;SDS011;48747;50.250;18.848;2023-02-26T02:37:42;12.73;;;6.00;;
37355;SDS011;48747;50.250;18.848;2023-02-26T02:40:11;7.87;;;4.65;;
37355;SDS011;48747;50.250;18.848;2023-02-26T02:44:33;10.60;;;5.22;;
37355;SDS011;48747;50.250;18.848;2023-02-26T02:46:33;12.20;;;5.40;;
37355;SDS011;48747;50.250;18.848;2023-02-26T02:51:09;10.93;;;5.72;;
37355;SDS011;48747;50.250;18.848;2023-02-26T02:55:51;10.30;;;5.65;;
37355;SDS011;48747;50.250;18.848;2023-02-26T02:57:52;11.93;;;5.92;;
37355;SDS011;48747;50.250;18.848;2023-02-26T03:00:14;9.80;;;4.75;;
37355;SDS011;48747;50.250;18.848;2023-02-26T03:04:37;15.08;;;7.30;;
37355;SDS011;48747;50.250;18.848;2023-02-26T03:06:55;15.83;;;10.15;;
37355;SDS011;48747;50.250;18.848;2023-02-26T03:09:09;13.72;;;7.55;;
37355;SDS011;48747;50.250;18.848;2023-02-26T03:11:11;10.95;;;5.47;;
37355;SDS011;48747;50.250;18.848;2023-02-26T03:20:31;11.50;;;5.80;;
37355;SDS011;48747;50.250;18.848;2023-02-26T03:29:56;13.10;;;6.20;;
37355;SDS011;48747;50.250;18.848;2023-02-26T03:32:07;12.03;;;6.42;;
37355;SDS011;48747;50.250;18.848;2023-02-26T03:34:14;9.98;;;6.42;;
37355;SDS011;48747;50.250;18.848;2023-02-26T03:36:25;11.38;;;6.55;;
37355;SDS011;48747;50.250;18.848;2023-02-26T03:38:36;11.25;;;6.42;;
37355;SDS011;48747;50.250;18.848;2023-02-26T03:40:42;13.88;;;8.23;;
37355;SDS011;48747;50.250;18.848;2023-02-26T03:42:53;12.05;;;6.72;;
37355;SDS011;48747;50.250;18.848;2023-02-26T03:45:01;11.63;;;7.15;;
37355;SDS011;48747;50.250;18.848;2023-02-26T03:47:11;11.55;;;5.85;;
37355;SDS011;48747;50.250;18.848;2023-02-26T04:02:49;11.88;;;7.83;;
37355;SDS011;48747;50.250;18.848;2023-02-26T04:07:28;8.48;;;4.30;;
37355;SDS011;48747;50.250;18.848;2023-02-26T04:09:21;7.78;;;4.83;;
37355;SDS011;48747;50.250;18.848;2023-02-26T04:11:30;10.25;;;5.17;;
37355;SDS011;48747;50.250;18.848;2023-02-26T04:13:38;6.97;;;4.15;;
37355;SDS011;48747;50.250;18.848;2023-02-26T04:16:00;9.70;;;5.80;;
37355;SDS011;48747;50.250;18.848;2023-02-26T04:18:17;12.37;;;6.58;;
37355;SDS011;48747;50.250;18.848;2023-02-26T04:20:16;15.10;;;8.63;;
37355;SDS011;48747;50.250;18.848;2023-02-26T04:22:21;12.98;;;7.97;;
37355;SDS011;48747;50.250;18.848;2023-02-26T04:24:40;14.90;;;8.10;;
37355;SDS011;48747;50.250;18.848;2023-02-26T04:26:42;11.78;;;6.03;;
37355;SDS011;48747;50.250;18.848;2023-02-26T04:28:46;11.90;;;5.87;;
37355;SDS011;48747;50.250;18.848;2023-02-26T04:31:09;11.75;;;5.40;;
37355;SDS011;48747;50.250;18.848;2023-02-26T04:33:05;13.03;;;6.70;;
37355;SDS011;48747;50.250;18.848;2023-02-26T04:35:11;13.98;;;6.10;;
37355;SDS011;48747;50.250;18.848;2023-02-26T04:39:25;9.78;;;4.80;;
37355;SDS011;48747;50.250;18.848;2023-02-26T04:43:44;15.00;;;7.62;;
37355;SDS011;48747;50.250;18.848;2023-02-26T04:48:10;10.53;;;6.80;;
37355;SDS011;48747;50.250;18.848;2023-02-26T04:50:13;10.72;;;7.78;;
37355;SDS011;48747;50.250;18.848;2023-02-26T04:52:18;15.38;;;8.03;;
37355;SDS011;48747;50.250;18.848;2023-02-26T04:54:33;17.80;;;7.83;;
37355;SDS011;48747;50.250;18.848;2023-02-26T04:56:43;14.60;;;7.35;;
37355;SDS011;48747;50.250;18.848;2023-02-26T04:58:56;13.53;;;8.50;;
37355;SDS011;48747;50.250;18.848;2023-02-26T05:01:05;16.50;;;8.45;;
37355;SDS011;48747;50.250;18.848;2023-02-26T05:03:09;17.12;;;9.00;;
37355;SDS011;48747;50.250;18.848;2023-02-26T05:05:19;17.12;;;8.93;;
37355;SDS011;48747;50.250;18.848;2023-02-26T05:07:32;15.38;;;8.20;;
37355;SDS011;48747;50.250;18.848;2023-02-26T05:10:00;13.48;;;6.35;;
37355;SDS011;48747;50.250;18.848;2023-02-26T05:11:59;14.40;;;7.20;;
37355;SDS011;48747;50.250;18.848;2023-02-26T05:16:06;13.98;;;5.60;;
37355;SDS011;48747;50.250;18.848;2023-02-26T05:18:10;10.65;;;5.65;;
37355;SDS011;48747;50.250;18.848;2023-02-26T05:20:18;12.88;;;5.40;;
37355;SDS011;48747;50.250;18.848;2023-02-26T05:24:35;12.33;;;7.75;;
37355;SDS011;48747;50.250;18.848;2023-02-26T05:26:49;14.33;;;6.95;;
37355;SDS011;48747;50.250;18.848;2023-02-26T05:28:49;9.45;;;5.08;;
37355;SDS011;48747;50.250;18.848;2023-02-26T05:33:07;12.95;;;5.55;;
37355;SDS011;48747;50.250;18.848;2023-02-26T05:35:15;11.05;;;6.15;;
37355;SDS011;48747;50.250;18.848;2023-02-26T05:37:29;14.68;;;6.85;;
37355;SDS011;48747;50.250;18.848;2023-02-26T05:39:35;17.50;;;7.90;;
37355;SDS011;48747;50.250;18.848;2023-02-26T05:48:05;13.58;;;6.92;;
37355;SDS011;48747;50.250;18.848;2023-02-26T05:50:13;17.05;;;8.23;;
37355;SDS011;48747;50.250;18.848;2023-02-26T05:52:16;21.75;;;9.00;;
37355;SDS011;48747;50.250;18.848;2023-02-26T05:56:30;16.97;;;9.35;;
37355;SDS011;48747;50.250;18.848;2023-02-26T06:02:56;34.38;;;18.05;;
37355;SDS011;48747;50.250;18.848;2023-02-26T06:05:04;21.73;;;10.45;;
37355;SDS011;48747;50.250;18.848;2023-02-26T06:07:16;20.35;;;11.00;;
37355;SDS011;48747;50.250;18.848;2023-02-26T06:09:18;17.65;;;9.98;;
37355;SDS011;48747;50.250;18.848;2023-02-26T06:11:31;17.57;;;7.70;;
37355;SDS011;48747;50.250;18.848;2023-02-26T06:13:42;13.32;;;7.12;;
37355;SDS011;48747;50.250;18.848;2023-02-26T06:17:56;16.67;;;7.92;;
37355;SDS011;48747;50.250;18.848;2023-02-26T06:20:06;13.03;;;7.25;;
37355;SDS011;48747;50.250;18.848;2023-02-26T06:24:21;15.88;;;7.92;;
37355;SDS011;48747;50.250;18.848;2023-02-26T06:26:28;14.83;;;7.62;;
37355;SDS011;48747;50.250;18.848;2023-02-26T06:28:37;15.72;;;7.78;;
37355;SDS011;48747;50.250;18.848;2023-02-26T06:30:43;14.18;;;6.72;;
37355;SDS011;48747;50.250;18.848;2023-02-26T06:32:57;13.53;;;7.62;;
37355;SDS011;48747;50.250;18.848;2023-02-26T06:37:07;14.13;;;7.25;;
37355;SDS011;48747;50.250;18.848;2023-02-26T06:39:18;13.28;;;7.08;;
37355;SDS011;48747;50.250;18.848;2023-02-26T06:41:29;16.50;;;7.25;;
37355;SDS011;48747;50.250;18.848;2023-02-26T06:45:41;18.17;;;8.88;;
37355;SDS011;48747;50.250;18.848;2023-02-26T06:47:50;13.90;;;7.72;;
37355;SDS011;48747;50.250;18.848;2023-02-26T06:50:02;14.83;;;7.00;;
37355;SDS011;48747;50.250;18.848;2023-02-26T06:52:12;43.52;;;24.55;;
37355;SDS011;48747;50.250;18.848;2023-02-26T06:54:32;21.35;;;11.00;;
37355;SDS011;48747;50.250;18.848;2023-02-26T06:56:30;16.52;;;7.80;;
37355;SDS011;48747;50.250;18.848;2023-02-26T06:58:36;20.20;;;10.70;;
37355;SDS011;48747;50.250;18.848;2023-02-26T07:00:44;17.65;;;10.63;;
37355;SDS011;48747;50.250;18.848;2023-02-26T07:02:58;29.75;;;17.12;;
37355;SDS011;48747;50.250;18.848;2023-02-26T07:05:02;18.70;;;11.22;;
37355;SDS011;48747;50.250;18.848;2023-02-26T07:07:08;27.80;;;17.73;;
37355;SDS011;48747;50.250;18.848;2023-02-26T07:09:23;22.45;;;14.18;;
37355;SDS011;48747;50.250;18.848;2023-02-26T07:11:35;22.75;;;12.63;;
37355;SDS011;48747;50.250;18.848;2023-02-26T07:14:00;20.90;;;10.58;;
37355;SDS011;48747;50.250;18.848;2023-02-26T07:18:34;21.73;;;10.98;;
37355;SDS011;48747;50.250;18.848;2023-02-26T07:20:37;20.82;;;11.22;;
37355;SDS011;48747;50.250;18.848;2023-02-26T07:22:44;20.90;;;11.30;;
37355;SDS011;48747;50.250;18.848;2023-02-26T07:29:23;31.62;;;15.98;;
37355;SDS011;48747;50.250;18.848;2023-02-26T07:31:32;19.10;;;10.88;;
37355;SDS011;48747;50.250;18.848;2023-02-26T07:33:41;34.03;;;16.32;;
37355;SDS011;48747;50.250;18.848;2023-02-26T07:37:59;24.43;;;14.35;;
37355;SDS011;48747;50.250;18.848;2023-02-26T07:40:20;21.75;;;13.18;;
37355;SDS011;48747;50.250;18.848;2023-02-26T07:42:17;23.10;;;13.20;;
37355;SDS011;48747;50.250;18.848;2023-02-26T07:44:22;25.68;;;15.03;;
37355;SDS011;48747;50.250;18.848;2023-02-26T07:46:34;23.98;;;12.95;;
37355;SDS011;48747;50.250;18.848;2023-02-26T07:48:46;24.00;;;12.82;;
37355;SDS011;48747;50.250;18.848;2023-02-26T07:51:02;22.35;;;12.68;;
37355;SDS011;48747;50.250;18.848;2023-02-26T07:53:13;16.20;;;10.00;;
37355;SDS011;48747;50.250;18.848;2023-02-26T07:55:22;17.00;;;10.03;;
37355;SDS011;48747;50.250;18.848;2023-02-26T07:59:39;19.10;;;11.18;;
37355;SDS011;48747;50.250;18.848;2023-02-26T08:01:57;20.27;;;10.78;;
37355;SDS011;48747;50.250;18.848;2023-02-26T08:04:04;22.02;;;10.20;;
37355;SDS011;48747;50.250;18.848;2023-02-26T08:06:18;15.03;;;8.18;;
37355;SDS011;48747;50.250;18.848;2023-02-26T08:08:31;20.35;;;10.55;;
37355;SDS011;48747;50.250;18.848;2023-02-26T08:12:55;24.80;;;13.30;;
37355;SDS011;48747;50.250;18.848;2023-02-26T08:17:13;17.48;;;9.15;;
37355;SDS011;48747;50.250;18.848;2023-02-26T08:19:21;7.65;;;3.25;;
37355;SDS011;48747;50.250;18.848;2023-02-26T08:21:32;7.42;;;4.85;;
37355;SDS011;48747;50.250;18.848;2023-02-26T08:23:59;6.00;;;3.98;;
37355;SDS011;48747;50.250;18.848;2023-02-26T08:26:04;6.90;;;4.50;;
37355;SDS011;48747;50.250;18.848;2023-02-26T08:28:01;6.75;;;4.25;;
37355;SDS011;48747;50.250;18.848;2023-02-26T08:30:09;10.03;;;5.15;;
37355;SDS011;48747;50.250;18.848;2023-02-26T08:39:09;13.30;;;6.45;;
37355;SDS011;48747;50.250;18.848;2023-02-26T08:41:23;13.45;;;7.40;;
37355;SDS011;48747;50.250;18.848;2023-02-26T08:43:21;16.60;;;7.37;;
37355;SDS011;48747;50.250;18.848;2023-02-26T08:47:36;13.83;;;6.83;;
37355;SDS011;48747;50.250;18.848;2023-02-26T08:49:45;13.38;;;7.30;;
37355;SDS011;48747;50.250;18.848;2023-02-26T08:54:19;13.50;;;8.03;;
37355;SDS011;48747;50.250;18.848;2023-02-26T09:00:54;13.80;;;8.08;;
37355;SDS011;48747;50.250;18.848;2023-02-26T09:03:08;16.12;;;8.15;;
37355;SDS011;48747;50.250;18.848;2023-02-26T09:05:15;15.18;;;7.75;;
37355;SDS011;48747;50.250;18.848;2023-02-26T09:20:50;8.73;;;4.70;;
37355;SDS011;48747;50.250;18.848;2023-02-26T09:36:20;5.60;;;2.95;;
37355;SDS011;48747;50.250;18.848;2023-02-26T09:40:50;5.08;;;2.45;;
37355;SDS011;48747;50.250;18.848;2023-02-26T09:47:48;6.20;;;2.75;;
37355;SDS011;48747;50.250;18.848;2023-02-26T09:55:25;15.75;;;6.92;;
37355;SDS011;48747;50.250;18.848;2023-02-26T09:57:44;13.03;;;7.08;;
37355;SDS011;48747;50.250;18.848;2023-02-26T10:02:06;7.60;;;3.98;;
37355;SDS011;48747;50.250;18.848;2023-02-26T10:14:34;8.00;;;4.15;;
37355;SDS011;48747;50.250;18.848;2023-02-26T10:16:42;7.12;;;3.65;;
37355;SDS011;48747;50.250;18.848;2023-02-26T10:28:23;7.80;;;3.72;;
37355;SDS011;48747;50.250;18.848;2023-02-26T10:30:41;8.18;;;3.70;;
37355;SDS011;48747;50.250;18.848;2023-02-26T10:35:20;7.80;;;3.60;;
37355;SDS011;48747;50.250;18.848;2023-02-26T10:42:20;10.08;;;4.80;;
37355;SDS011;48747;50.250;18.848;2023-02-26T10:44:37;8.58;;;3.90;;
37355;SDS011;48747;50.250;18.848;2023-02-26T11:02:52;9.70;;;4.20;;
37355;SDS011;48747;50.250;18.848;2023-02-26T11:19:24;30.12;;;19.57;;
37355;SDS011;48747;50.250;18.848;2023-02-26T11:21:48;29.12;;;19.60;;
37355;SDS011;48747;50.250;18.848;2023-02-26T11:26:24;151.65;;;98.67;;
37355;SDS011;48747;50.250;18.848;2023-02-26T11:44:57;16.77;;;7.87;;
37355;SDS011;48747;50.250;18.848;2023-02-26T13:08:14;26.77;;;12.35;;
37355;SDS011;48747;50.250;18.848;2023-02-26T15:17:14;20.92;;;9.45;;
37355;SDS011;48747;50.250;18.848;2023-02-26T15:24:57;20.05;;;10.60;;
37355;SDS011;48747;50.250;18.848;2023-02-26T15:27:09;19.48;;;10.82;;
37355;SDS011;48747;50.250;18.848;2023-02-26T15:38:29;19.55;;;11.00;;
37355;SDS011;48747;50.250;18.848;2023-02-26T15:40:36;21.33;;;10.53;;
37355;SDS011;48747;50.250;18.848;2023-02-26T15:42:55;21.27;;;11.03;;
37355;SDS011;48747;50.250;18.848;2023-02-26T15:47:40;28.05;;;13.93;;
37355;SDS011;48747;50.250;18.848;2023-02-26T15:52:32;27.87;;;13.90;;
37355;SDS011;48747;50.250;18.848;2023-02-26T16:01:24;35.10;;;18.07;;
37355;SDS011;48747;50.250;18.848;2023-02-26T16:03:33;39.67;;;19.82;;
37355;SDS011;48747;50.250;18.848;2023-02-26T16:10:05;37.90;;;17.45;;
37355;SDS011;48747;50.250;18.848;2023-02-26T16:12:19;35.00;;;16.25;;
37355;SDS011;48747;50.250;18.848;2023-02-26T16:14:32;30.02;;;15.68;;
37355;SDS011;48747;50.250;18.848;2023-02-26T16:19:17;42.17;;;17.67;;
37355;SDS011;48747;50.250;18.848;2023-02-26T16:21:38;34.98;;;17.65;;
37355;SDS011;48747;50.250;18.848;2023-02-26T16:26:06;39.80;;;20.85;;
37355;SDS011;48747;50.250;18.848;2023-02-26T16:28:21;43.90;;;23.62;;
37355;SDS011;48747;50.250;18.848;2023-02-26T16:30:33;54.08;;;27.45;;
37355;SDS011;48747;50.250;18.848;2023-02-26T16:32:40;53.20;;;26.12;;
37355;SDS011;48747;50.250;18.848;2023-02-26T16:37:21;47.00;;;24.63;;
37355;SDS011;48747;50.250;18.848;2023-02-26T16:41:45;40.75;;;19.65;;
37355;SDS011;48747;50.250;18.848;2023-02-26T16:46:45;82.85;;;36.77;;
37355;SDS011;48747;50.250;18.848;2023-02-26T16:48:54;133.07;;;55.05;;
37355;SDS011;48747;50.250;18.848;2023-02-26T16:51:11;90.25;;;39.92;;
37355;SDS011;48747;50.250;18.848;2023-02-26T16:57:42;56.13;;;27.55;;
37355;SDS011;48747;50.250;18.848;2023-02-26T16:59:38;40.60;;;18.70;;
37355;SDS011;48747;50.250;18.848;2023-02-26T17:01:58;47.80;;;22.30;;
37355;SDS011;48747;50.250;18.848;2023-02-26T17:04:56;63.90;;;28.62;;
37355;SDS011;48747;50.250;18.848;2023-02-26T17:08:29;44.77;;;22.32;;
37355;SDS011;48747;50.250;18.848;2023-02-26T17:10:53;41.08;;;20.15;;
37355;SDS011;48747;50.250;18.848;2023-02-26T17:13:03;31.02;;;16.65;;
37355;SDS011;48747;50.250;18.848;2023-02-26T17:15:28;27.10;;;16.10;;
37355;SDS011;48747;50.250;18.848;2023-02-26T17:17:33;34.95;;;17.00;;
37355;SDS011;48747;50.250;18.848;2023-02-26T17:19:36;37.55;;;18.02;;
37355;SDS011;48747;50.250;18.848;2023-02-26T17:21:46;35.45;;;19.52;;
37355;SDS011;48747;50.250;18.848;2023-02-26T17:25:54;32.55;;;16.93;;
37355;SDS011;48747;50.250;18.848;2023-02-26T17:28:03;35.73;;;17.23;;
37355;SDS011;48747;50.250;18.848;2023-02-26T17:30:08;50.58;;;20.92;;
37355;SDS011;48747;50.250;18.848;2023-02-26T17:32:28;48.63;;;22.22;;
37355;SDS011;48747;50.250;18.848;2023-02-26T17:34:33;51.10;;;24.98;;
37355;SDS011;48747;50.250;18.848;2023-02-26T17:36:44;58.33;;;27.70;;
37355;SDS011;48747;50.250;18.848;2023-02-26T17:38:39;53.90;;;25.75;;
37355;SDS011;48747;50.250;18.848;2023-02-26T17:40:48;52.33;;;26.48;;
37355;SDS011;48747;50.250;18.848;2023-02-26T17:42:52;41.80;;;21.30;;
37355;SDS011;48747;50.250;18.848;2023-02-26T17:44:59;49.30;;;24.00;;
37355;SDS011;48747;50.250;18.848;2023-02-26T17:47:05;49.83;;;27.15;;
37355;SDS011;48747;50.250;18.848;2023-02-26T17:49:14;58.05;;;33.65;;
37355;SDS011;48747;50.250;18.848;2023-02-26T17:53:38;54.67;;;26.50;;
37355;SDS011;48747;50.250;18.848;2023-02-26T17:55:32;50.60;;;25.15;;
37355;SDS011;48747;50.250;18.848;2023-02-26T17:57:38;56.95;;;27.02;;
37355;SDS011;48747;50.250;18.848;2023-02-26T18:01:50;51.80;;;26.02;;
37355;SDS011;48747;50.250;18.848;2023-02-26T18:03:55;37.08;;;19.30;;
37355;SDS011;48747;50.250;18.848;2023-02-26T18:06:00;37.10;;;18.32;;
37355;SDS011;48747;50.250;18.848;2023-02-26T18:08:49;42.03;;;19.82;;
37355;SDS011;48747;50.250;18.848;2023-02-26T18:10:18;42.70;;;19.80;;
37355;SDS011;48747;50.250;18.848;2023-02-26T18:12:25;46.13;;;23.45;;
37355;SDS011;48747;50.250;18.848;2023-02-26T18:14:28;53.52;;;25.80;;
37355;SDS011;48747;50.250;18.848;2023-02-26T18:16:32;54.10;;;27.35;;
37355;SDS011;48747;50.250;18.848;2023-02-26T18:18:40;49.10;;;24.80;;
37355;SDS011;48747;50.250;18.848;2023-02-26T18:20:43;48.00;;;23.35;;
37355;SDS011;48747;50.250;18.848;2023-02-26T18:22:48;48.28;;;24.23;;
37355;SDS011;48747;50.250;18.848;2023-02-26T18:24:53;47.53;;;23.05;;
37355;SDS011;48747;50.250;18.848;2023-02-26T18:26:57;49.18;;;23.38;;
37355;SDS011;48747;50.250;18.848;2023-02-26T18:29:01;51.98;;;23.45;;
37355;SDS011;48747;50.250;18.848;2023-02-26T18:31:05;44.83;;;22.73;;
37355;SDS011;48747;50.250;18.848;2023-02-26T18:33:12;43.17;;;20.90;;
37355;SDS011;48747;50.250;18.848;2023-02-26T18:35:29;47.88;;;23.55;;
37355;SDS011;48747;50.250;18.848;2023-02-26T18:37:26;40.15;;;20.85;;
37355;SDS011;48747;50.250;18.848;2023-02-26T18:39:34;46.75;;;23.60;;
37355;SDS011;48747;50.250;18.848;2023-02-26T18:41:41;60.00;;;26.27;;
37355;SDS011;48747;50.250;18.848;2023-02-26T18:43:48;70.60;;;31.55;;
37355;SDS011;48747;50.250;18.848;2023-02-26T18:45:52;73.52;;;32.03;;
37355;SDS011;48747;50.250;18.848;2023-02-26T18:48:05;70.08;;;30.60;;
37355;SDS011;48747;50.250;18.848;2023-02-26T18:50:07;72.95;;;33.48;;
37355;SDS011;48747;50.250;18.848;2023-02-26T18:52:11;74.92;;;34.40;;
37355;SDS011;48747;50.250;18.848;2023-02-26T18:54:18;76.40;;;33.18;;
37355;SDS011;48747;50.250;18.848;2023-02-26T18:56:23;84.20;;;34.08;;
37355;SDS011;48747;50.250;18.848;2023-02-26T18:58:29;67.35;;;30.55;;
37355;SDS011;48747;50.250;18.848;2023-02-26T19:00:38;157.18;;;78.15;;
37355;SDS011;48747;50.250;18.848;2023-02-26T19:02:54;105.97;;;44.08;;
37355;SDS011;48747;50.250;18.848;2023-02-26T19:05:10;96.50;;;40.85;;
37355;SDS011;48747;50.250;18.848;2023-02-26T19:07:18;85.15;;;37.40;;
37355;SDS011;48747;50.250;18.848;2023-02-26T19:09:27;88.30;;;38.83;;
37355;SDS011;48747;50.250;18.848;2023-02-26T19:13:49;119.75;;;48.40;;
37355;SDS011;48747;50.250;18.848;2023-02-26T19:15:57;126.95;;;50.33;;
37355;SDS011;48747;50.250;18.848;2023-02-26T19:18:00;109.50;;;47.43;;
37355;SDS011;48747;50.250;18.848;2023-02-26T19:20:03;120.62;;;46.70;;
37355;SDS011;48747;50.250;18.848;2023-02-26T19:26:30;92.05;;;39.65;;
37355;SDS011;48747;50.250;18.848;2023-02-26T19:28:36;84.05;;;37.23;;
37355;SDS011;48747;50.250;18.848;2023-02-26T19:30:49;84.17;;;37.15;;
37355;SDS011;48747;50.250;18.848;2023-02-26T19:32:48;104.00;;;43.25;;
37355;SDS011;48747;50.250;18.848;2023-02-26T19:34:58;87.25;;;38.00;;
37355;SDS011;48747;50.250;18.848;2023-02-26T19:37:02;94.83;;;40.75;;
37355;SDS011;48747;50.250;18.848;2023-02-26T19:43:26;247.20;;;85.67;;
37355;SDS011;48747;50.250;18.848;2023-02-26T19:45:35;274.05;;;91.15;;
37355;SDS011;48747;50.250;18.848;2023-02-26T19:47:40;257.62;;;86.42;;
37355;SDS011;48747;50.250;18.848;2023-02-26T19:49:56;251.42;;;84.40;;
37355;SDS011;48747;50.250;18.848;2023-02-26T19:52:08;235.50;;;81.05;;
37355;SDS011;48747;50.250;18.848;2023-02-26T19:54:26;253.27;;;86.70;;
37355;SDS011;48747;50.250;18.848;2023-02-26T20:00:55;122.60;;;45.80;;
37355;SDS011;48747;50.250;18.848;2023-02-26T20:02:49;105.85;;;46.30;;
37355;SDS011;48747;50.250;18.848;2023-02-26T20:04:53;124.87;;;53.38;;
37355;SDS011;48747;50.250;18.848;2023-02-26T20:07:04;255.70;;;117.97;;
37355;SDS011;48747;50.250;18.848;2023-02-26T20:09:07;325.25;;;141.03;;
37355;SDS011;48747;50.250;18.848;2023-02-26T20:11:15;161.75;;;89.22;;
37355;SDS011;48747;50.250;18.848;2023-02-26T20:13:26;58.73;;;26.75;;
37355;SDS011;48747;50.250;18.848;2023-02-26T20:15:27;58.65;;;25.45;;
37355;SDS011;48747;50.250;18.848;2023-02-26T20:17:33;61.42;;;25.72;;
37355;SDS011;48747;50.250;18.848;2023-02-26T20:19:38;63.38;;;26.35;;
37355;SDS011;48747;50.250;18.848;2023-02-26T20:23:49;60.45;;;23.47;;
37355;SDS011;48747;50.250;18.848;2023-02-26T20:25:59;42.88;;;20.43;;
37355;SDS011;48747;50.250;18.848;2023-02-26T20:28:01;56.42;;;23.18;;
37355;SDS011;48747;50.250;18.848;2023-02-26T20:32:20;58.80;;;24.57;;
37355;SDS011;48747;50.250;18.848;2023-02-26T20:38:55;52.55;;;23.27;;
37355;SDS011;48747;50.250;18.848;2023-02-26T20:40:58;65.28;;;29.90;;
37355;SDS011;48747;50.250;18.848;2023-02-26T20:43:03;84.87;;;37.15;;
37355;SDS011;48747;50.250;18.848;2023-02-26T20:45:08;76.28;;;34.38;;
37355;SDS011;48747;50.250;18.848;2023-02-26T20:47:13;73.20;;;30.62;;
37355;SDS011;48747;50.250;18.848;2023-02-26T20:49:19;71.17;;;29.48;;
37355;SDS011;48747;50.250;18.848;2023-02-26T20:51:28;78.92;;;33.38;;
37355;SDS011;48747;50.250;18.848;2023-02-26T20:53:53;70.17;;;30.32;;
37355;SDS011;48747;50.250;18.848;2023-02-26T20:55:39;84.60;;;34.88;;
37355;SDS011;48747;50.250;18.848;2023-02-26T20:57:53;82.30;;;34.23;;
37355;SDS011;48747;50.250;18.848;2023-02-26T20:59:54;93.27;;;36.20;;
37355;SDS011;48747;50.250;18.848;2023-02-26T21:02:04;76.25;;;32.78;;
37355;SDS011;48747;50.250;18.848;2023-02-26T21:06:18;82.30;;;35.75;;
37355;SDS011;48747;50.250;18.848;2023-02-26T21:08:31;89.05;;;38.33;;
37355;SDS011;48747;50.250;18.848;2023-02-26T21:10:35;101.07;;;38.98;;
37355;SDS011;48747;50.250;18.848;2023-02-26T21:12:45;100.80;;;37.85;;
37355;SDS011;48747;50.250;18.848;2023-02-26T21:14:46;98.95;;;40.03;;
37355;SDS011;48747;50.250;18.848;2023-02-26T21:16:55;91.22;;;39.58;;
37355;SDS011;48747;50.250;18.848;2023-02-26T21:18:57;90.90;;;36.77;;
37355;SDS011;48747;50.250;18.848;2023-02-26T21:21:05;93.45;;;38.13;;
37355;SDS011;48747;50.250;18.848;2023-02-26T21:23:14;81.05;;;34.25;;
37355;SDS011;48747;50.250;18.848;2023-02-26T21:25:17;73.62;;;32.98;;
37355;SDS011;48747;50.250;18.848;2023-02-26T21:27:26;77.00;;;31.50;;
37355;SDS011;48747;50.250;18.848;2023-02-26T21:29:33;54.48;;;25.37;;
37355;SDS011;48747;50.250;18.848;2023-02-26T21:33:50;53.13;;;21.73;;
37355;SDS011;48747;50.250;18.848;2023-02-26T21:38:10;54.23;;;22.82;;
37355;SDS011;48747;50.250;18.848;2023-02-26T21:42:28;50.98;;;21.27;;
37355;SDS011;48747;50.250;18.848;2023-02-26T21:44:31;45.48;;;17.75;;
37355;SDS011;48747;50.250;18.848;2023-02-26T21:46:34;42.43;;;18.05;;
37355;SDS011;48747;50.250;18.848;2023-02-26T21:48:38;45.10;;;18.20;;
37355;SDS011;48747;50.250;18.848;2023-02-26T21:50:58;44.58;;;16.75;;
37355;SDS011;48747;50.250;18.848;2023-02-26T21:52:51;34.10;;;15.88;;
37355;SDS011;48747;50.250;18.848;2023-02-26T21:54:57;49.58;;;18.35;;
37355;SDS011;48747;50.250;18.848;2023-02-26T21:57:03;42.75;;;16.95;;
37355;SDS011;48747;50.250;18.848;2023-02-26T21:59:17;41.63;;;16.97;;
37355;SDS011;48747;50.250;18.848;2023-02-26T22:01:22;41.30;;;16.32;;
37355;SDS011;48747;50.250;18.848;2023-02-26T22:03:34;38.35;;;15.75;;
37355;SDS011;48747;50.250;18.848;2023-02-26T22:05:29;33.50;;;14.13;;
37355;SDS011;48747;50.250;18.848;2023-02-26T22:07:38;38.33;;;14.93;;
37355;SDS011;48747;50.250;18.848;2023-02-26T22:09:48;38.23;;;13.15;;
37355;SDS011;48747;50.250;18.848;2023-02-26T22:12:00;37.28;;;13.90;;
37355;SDS011;48747;50.250;18.848;2023-02-26T22:13:58;35.25;;;12.75;;
37355;SDS011;48747;50.250;18.848;2023-02-26T22:16:07;29.63;;;11.97;;
37355;SDS011;48747;50.250;18.848;2023-02-26T22:18:24;25.27;;;9.10;;
37355;SDS011;48747;50.250;18.848;2023-02-26T22:20:21;28.57;;;10.60;;
37355;SDS011;48747;50.250;18.848;2023-02-26T22:22:28;30.95;;;11.57;;
37355;SDS011;48747;50.250;18.848;2023-02-26T22:24:43;24.80;;;9.60;;
37355;SDS011;48747;50.250;18.848;2023-02-26T22:26:43;25.25;;;9.60;;
37355;SDS011;48747;50.250;18.848;2023-02-26T22:28:50;22.80;;;9.40;;
37355;SDS011;48747;50.250;18.848;2023-02-26T22:30:55;23.30;;;10.15;;
37355;SDS011;48747;50.250;18.848;2023-02-26T22:33:05;26.95;;;9.95;;
37355;SDS011;48747;50.250;18.848;2023-02-26T22:35:11;28.95;;;10.40;;
37355;SDS011;48747;50.250;18.848;2023-02-26T22:37:21;26.65;;;10.72;;
37355;SDS011;48747;50.250;18.848;2023-02-26T22:39:23;30.43;;;11.85;;
37355;SDS011;48747;50.250;18.848;2023-02-26T22:41:32;33.75;;;12.82;;
37355;SDS011;48747;50.250;18.848;2023-02-26T22:43:38;29.07;;;10.48;;
37355;SDS011;48747;50.250;18.848;2023-02-26T22:45:41;25.97;;;10.58;;
37355;SDS011;48747;50.250;18.848;2023-02-26T22:47:45;31.15;;;12.40;;
37355;SDS011;48747;50.250;18.848;2023-02-26T22:49:48;31.62;;;11.78;;
37355;SDS011;48747;50.250;18.848;2023-02-26T22:51:51;30.85;;;12.58;;
37355;SDS011;48747;50.250;18.848;2023-02-26T22:53:54;32.30;;;12.28;;
37355;SDS011;48747;50.250;18.848;2023-02-26T22:55:58;27.62;;;11.95;;
37355;SDS011;48747;50.250;18.848;2023-02-26T22:58:01;30.85;;;11.73;;
37355;SDS011;48747;50.250;18.848;2023-02-26T23:00:06;24.47;;;10.58;;
37355;SDS011;48747;50.250;18.848;2023-02-26T23:02:12;28.12;;;11.75;;
37355;SDS011;48747;50.250;18.848;2023-02-26T23:04:17;31.12;;;13.13;;
37355;SDS011;48747;50.250;18.848;2023-02-26T23:06:22;34.80;;;14.28;;
37355;SDS011;48747;50.250;18.848;2023-02-26T23:08:26;28.12;;;12.55;;
37355;SDS011;48747;50.250;18.848;2023-02-26T23:10:37;26.85;;;11.55;;
37355;SDS011;48747;50.250;18.848;2023-02-26T23:12:56;22.17;;;9.53;;
37355;SDS011;48747;50.250;18.848;2023-02-26T23:14:48;25.25;;;9.95;;
37355;SDS011;48747;50.250;18.848;2023-02-26T23:17:05;26.27;;;10.38;;
37355;SDS011;48747;50.250;18.848;2023-02-26T23:19:05;24.63;;;10.23;;
37355;SDS011;48747;50.250;18.848;2023-02-26T23:21:11;25.52;;;10.40;;
37355;SDS011;48747;50.250;18.848;2023-02-26T23:23:18;27.85;;;10.15;;
37355;SDS011;48747;50.250;18.848;2023-02-26T23:25:23;25.17;;;10.28;;